createdAt,value
2018-09-21T00:01:02.636Z,20.30
2018-09-21T00:03:31.394Z,20.30
2018-09-21T00:06:00.255Z,20.30
2018-09-21T00:08:28.774Z,20.30
2018-09-21T00:10:57.465Z,20.20
2018-09-21T00:13:26.015Z,20.20
2018-09-21T00:15:54.584Z,20.20
2018-09-21T00:18:23.221Z,20.20
2018-09-21T00:20:51.824Z,20.20
2018-09-21T00:23:20.357Z,20.20
2018-09-21T00:25:48.946Z,20.20
2018-09-21T00:28:17.513Z,20.20
2018-09-21T00:30:46.041Z,20.20
2018-09-21T00:33:14.596Z,20.10
2018-09-21T00:35:43.188Z,20.10
2018-09-21T00:38:12.376Z,20.10
2018-09-21T00:40:41.333Z,20.10
2018-09-21T00:43:09.942Z,20.10
2018-09-21T00:45:39.109Z,20.10
2018-09-21T00:48:08.325Z,20.00
2018-09-21T00:50:37.521Z,20.00
2018-09-21T00:53:06.140Z,20.00
2018-09-21T00:55:34.858Z,20.00
2018-09-21T00:58:03.367Z,19.90
2018-09-21T01:00:32.478Z,19.90
2018-09-21T01:03:01.013Z,19.90
2018-09-21T01:05:29.562Z,19.90
2018-09-21T01:07:58.059Z,19.80
2018-09-21T01:10:26.592Z,19.80
2018-09-21T01:12:55.310Z,19.80
2018-09-21T01:15:23.901Z,19.80
2018-09-21T01:17:52.472Z,19.80
2018-09-21T01:20:21.798Z,19.70
2018-09-21T01:22:50.333Z,19.70
2018-09-21T01:25:19.144Z,19.70
2018-09-21T01:27:47.731Z,19.70
2018-09-21T01:30:16.790Z,19.60
2018-09-21T01:32:45.383Z,19.60
2018-09-21T01:35:14.055Z,19.60
2018-09-21T01:37:43.018Z,19.60
2018-09-21T01:40:12.926Z,19.50
2018-09-21T01:42:43.645Z,19.50
2018-09-21T01:45:12.204Z,19.50
2018-09-21T01:47:40.977Z,19.50
2018-09-21T01:50:09.563Z,19.50
2018-09-21T01:52:39.116Z,19.50
2018-09-21T01:55:07.709Z,19.50
2018-09-21T01:57:36.808Z,19.50
2018-09-21T02:00:05.620Z,19.50
2018-09-21T02:02:34.261Z,19.50
2018-09-21T02:05:03.553Z,19.50
2018-09-21T02:07:33.130Z,19.50
2018-09-21T02:10:01.974Z,19.40
2018-09-21T02:12:30.565Z,19.40
2018-09-21T02:14:59.184Z,19.30
2018-09-21T02:17:28.281Z,19.30
2018-09-21T02:19:57.153Z,19.30
2018-09-21T02:22:28.063Z,19.30
2018-09-21T02:24:56.768Z,19.30
2018-09-21T02:27:25.968Z,19.30
2018-09-21T02:30:00.000Z,19.30
2018-09-21T02:32:32.676Z,19.20
2018-09-21T02:35:02.890Z,19.20
2018-09-21T02:37:33.543Z,19.20
2018-09-21T02:40:03.624Z,19.20
2018-09-21T02:42:33.886Z,19.20
2018-09-21T02:45:02.574Z,19.20
2018-09-21T02:47:31.308Z,19.20
2018-09-21T02:49:59.905Z,19.10
2018-09-21T02:52:28.861Z,19.10
2018-09-21T02:54:57.480Z,19.10
2018-09-21T02:57:26.363Z,19.10
2018-09-21T02:59:54.985Z,19.10
2018-09-21T03:02:23.591Z,19.00
2018-09-21T03:04:52.739Z,19.00
2018-09-21T03:07:22.089Z,19.00
2018-09-21T03:09:50.667Z,19.00
2018-09-21T03:12:20.140Z,18.90
2018-09-21T03:14:49.765Z,18.90
2018-09-21T03:17:22.671Z,18.90
2018-09-21T03:19:51.635Z,18.90
2018-09-21T03:22:20.886Z,18.80
2018-09-21T03:24:50.658Z,18.80
2018-09-21T03:27:19.815Z,18.80
2018-09-21T03:29:49.723Z,18.80
2018-09-21T03:32:19.876Z,18.60
2018-09-21T03:34:50.089Z,18.70
2018-09-21T03:37:18.697Z,18.70
2018-09-21T03:39:48.279Z,18.70
2018-09-21T03:42:19.393Z,18.70
2018-09-21T03:44:48.424Z,18.60
2018-09-21T03:47:20.788Z,18.60
2018-09-21T03:49:50.913Z,18.60
2018-09-21T03:52:20.823Z,18.60
2018-09-21T03:54:49.444Z,18.60
2018-09-21T03:57:19.011Z,18.60
2018-09-21T03:59:48.228Z,18.60
2018-09-21T04:02:19.118Z,18.60
2018-09-21T04:04:49.020Z,18.60
2018-09-21T04:07:19.375Z,18.60
2018-09-21T04:09:47.930Z,18.50
2018-09-21T04:12:16.459Z,18.50
2018-09-21T04:14:45.211Z,18.50
2018-09-21T04:17:13.963Z,18.50
2018-09-21T04:19:42.819Z,18.50
2018-09-21T04:22:11.483Z,18.50
2018-09-21T04:24:40.765Z,18.50
2018-09-21T04:27:09.452Z,18.50
2018-09-21T04:29:38.283Z,18.40
2018-09-21T04:32:07.062Z,18.40
2018-09-21T04:34:35.968Z,18.40
2018-09-21T04:37:04.563Z,18.40
2018-09-21T04:39:33.196Z,18.40
2018-09-21T04:42:02.113Z,18.40
2018-09-21T04:44:30.697Z,18.40
2018-09-21T04:46:59.280Z,18.40
2018-09-21T04:49:27.842Z,18.40
2018-09-21T04:51:56.433Z,18.40
2018-09-21T04:54:25.308Z,18.30
2018-09-21T04:56:54.052Z,18.30
2018-09-21T04:59:22.655Z,18.30
2018-09-21T05:01:51.544Z,18.30
2018-09-21T05:04:20.133Z,18.30
2018-09-21T05:06:48.724Z,18.30
2018-09-21T05:09:17.369Z,18.20
2018-09-21T05:11:46.881Z,18.20
2018-09-21T05:14:15.619Z,18.20
2018-09-21T05:16:44.255Z,18.20
2018-09-21T05:19:12.902Z,18.20
2018-09-21T05:21:41.539Z,18.10
2018-09-21T05:24:10.529Z,18.10
2018-09-21T05:26:39.852Z,18.10
2018-09-21T05:29:09.396Z,18.10
2018-09-21T05:31:38.072Z,18.10
2018-09-21T05:34:06.897Z,18.10
2018-09-21T05:36:35.479Z,18.10
2018-09-21T05:39:05.911Z,18.10
2018-09-21T05:41:34.416Z,18.10
2018-09-21T05:44:03.001Z,18.10
2018-09-21T05:46:31.585Z,18.10
2018-09-21T05:49:00.266Z,18.10
2018-09-21T05:51:28.803Z,18.10
2018-09-21T05:53:57.313Z,18.10
2018-09-21T05:56:26.427Z,18.20
2018-09-21T05:58:54.921Z,18.20
2018-09-21T06:01:23.497Z,18.20
2018-09-21T06:03:52.147Z,18.30
2018-09-21T06:06:20.823Z,18.40
2018-09-21T06:08:49.355Z,18.40
2018-09-21T06:11:17.908Z,18.50
2018-09-21T06:13:46.527Z,18.60
2018-09-21T06:16:15.769Z,18.60
2018-09-21T06:18:44.416Z,18.60
2018-09-21T06:21:13.091Z,18.70
2018-09-21T06:23:41.735Z,18.70
2018-09-21T06:26:10.629Z,18.70
2018-09-21T06:28:39.839Z,18.80
2018-09-21T06:31:08.452Z,18.80
2018-09-21T06:33:38.299Z,18.90
2018-09-21T06:36:06.950Z,18.90
2018-09-21T06:38:35.509Z,18.90
2018-09-21T06:41:04.108Z,19.00
2018-09-21T06:43:32.595Z,19.10
2018-09-21T06:46:01.282Z,19.20
2018-09-21T06:48:29.814Z,19.30
2018-09-21T06:50:58.330Z,19.30
2018-09-21T06:53:26.832Z,19.40
2018-09-21T06:55:55.353Z,19.40
2018-09-21T06:58:23.870Z,19.40
2018-09-21T07:00:52.449Z,19.50
2018-09-21T07:03:21.049Z,19.50
2018-09-21T07:05:50.016Z,19.60
2018-09-21T07:08:18.575Z,19.60
2018-09-21T07:10:47.321Z,19.60
2018-09-21T07:13:15.909Z,19.70
2018-09-21T07:15:44.530Z,19.70
2018-09-21T07:18:13.168Z,19.70
2018-09-21T07:20:41.880Z,19.70
2018-09-21T07:23:10.625Z,19.80
2018-09-21T07:25:39.753Z,19.80
2018-09-21T07:28:08.300Z,19.80
2018-09-21T07:30:36.959Z,19.80
2018-09-21T07:33:05.525Z,19.80
2018-09-21T07:35:34.036Z,19.80
2018-09-21T07:38:03.144Z,19.80
2018-09-21T07:40:31.720Z,19.90
2018-09-21T07:43:00.877Z,20.00
2018-09-21T07:45:29.698Z,20.00
2018-09-21T07:47:58.541Z,20.10
2018-09-21T07:50:27.177Z,20.20
2018-09-21T07:52:55.762Z,20.20
2018-09-21T07:55:25.296Z,20.30
2018-09-21T07:57:54.029Z,20.40
2018-09-21T08:00:22.767Z,20.40
2018-09-21T08:02:51.301Z,20.50
2018-09-21T08:05:27.817Z,20.60
2018-09-21T08:07:56.439Z,20.60
2018-09-21T08:10:25.032Z,20.70
2018-09-21T08:12:53.596Z,20.70
2018-09-21T08:15:22.541Z,20.70
2018-09-21T08:17:51.370Z,20.80
2018-09-21T08:20:19.955Z,20.90
2018-09-21T08:22:48.654Z,21.00
2018-09-21T08:25:17.220Z,21.00
2018-09-21T08:27:46.081Z,21.10
2018-09-21T08:30:15.063Z,21.10
2018-09-21T08:32:44.858Z,21.00
2018-09-21T08:35:13.432Z,21.00
2018-09-21T08:37:42.728Z,21.10
2018-09-21T08:40:11.276Z,21.10
2018-09-21T08:42:40.163Z,21.20
2018-09-21T08:45:08.860Z,21.20
2018-09-21T08:47:37.513Z,21.30
2018-09-21T08:50:06.953Z,21.30
2018-09-21T08:52:35.704Z,21.30
2018-09-21T08:55:04.315Z,21.40
2018-09-21T08:57:32.807Z,21.50
2018-09-21T09:00:01.856Z,21.50
2018-09-21T09:02:30.463Z,21.50
2018-09-21T09:04:59.565Z,21.50
2018-09-21T09:07:28.139Z,21.50
2018-09-21T09:09:56.905Z,21.60
2018-09-21T09:12:25.725Z,21.50
2018-09-21T09:14:54.207Z,21.50
2018-09-21T09:17:22.942Z,21.60
2018-09-21T09:19:51.490Z,21.60
2018-09-21T09:22:20.109Z,21.60
2018-09-21T09:24:48.855Z,21.60
2018-09-21T09:27:17.559Z,21.70
2018-09-21T09:29:46.286Z,21.70
2018-09-21T09:32:15.494Z,21.90
2018-09-21T09:34:44.803Z,22.00
2018-09-21T09:37:13.419Z,22.10
2018-09-21T09:39:41.936Z,22.10
2018-09-21T09:42:10.522Z,22.20
2018-09-21T09:44:40.172Z,22.30
2018-09-21T09:47:08.794Z,22.30
2018-09-21T09:49:37.327Z,22.40
2018-09-21T09:52:06.520Z,22.50
2018-09-21T09:54:35.044Z,22.60
2018-09-21T09:57:03.550Z,22.70
2018-09-21T09:59:32.053Z,22.70
2018-09-21T10:02:00.796Z,22.80
2018-09-21T10:04:29.285Z,22.80
2018-09-21T10:06:57.827Z,22.80
2018-09-21T10:09:26.464Z,22.70
2018-09-21T10:11:55.156Z,22.70
2018-09-21T10:14:24.110Z,22.70
2018-09-21T10:16:52.746Z,22.70
2018-09-21T10:19:21.313Z,22.70
2018-09-21T10:21:49.843Z,22.80
2018-09-21T10:24:18.351Z,22.80
2018-09-21T10:26:47.155Z,22.80
2018-09-21T10:29:16.552Z,22.80
2018-09-21T10:31:45.147Z,22.80
2018-09-21T10:34:13.722Z,22.90
2018-09-21T10:36:42.285Z,22.90
2018-09-21T10:39:10.957Z,22.80
2018-09-21T10:41:39.928Z,22.70
2018-09-21T10:44:08.665Z,22.70
2018-09-21T10:46:38.126Z,22.70
2018-09-21T10:49:06.744Z,22.80
2018-09-21T10:51:35.343Z,22.70
2018-09-21T10:54:03.853Z,22.60
2018-09-21T10:56:32.376Z,22.50
2018-09-21T10:59:01.180Z,22.30
2018-09-21T11:01:29.821Z,22.20
2018-09-21T11:03:58.545Z,22.20
2018-09-21T11:06:27.404Z,22.20
2018-09-21T11:08:56.082Z,22.10
2018-09-21T11:11:24.718Z,22.00
2018-09-21T11:13:53.753Z,21.90
2018-09-21T11:16:22.323Z,21.80
2018-09-21T11:18:50.979Z,21.70
2018-09-21T11:21:20.098Z,21.60
2018-09-21T11:23:49.258Z,21.50
2018-09-21T11:26:17.819Z,21.40
2018-09-21T11:28:46.438Z,21.20
2018-09-21T11:31:15.041Z,21.00
2018-09-21T11:33:44.947Z,20.70
2018-09-21T11:36:13.641Z,20.50
2018-09-21T11:38:42.323Z,19.80
2018-09-21T11:41:11.210Z,19.00
2018-09-21T11:43:40.447Z,18.50
2018-09-21T11:46:09.077Z,17.80
2018-09-21T11:48:37.835Z,17.50
2018-09-21T11:51:06.738Z,17.30
2018-09-21T11:53:35.380Z,17.10
2018-09-21T11:56:04.087Z,16.90
2018-09-21T11:58:32.879Z,16.80
2018-09-21T12:01:01.558Z,16.80
2018-09-21T12:03:30.499Z,16.90
2018-09-21T12:05:59.252Z,16.70
2018-09-21T12:08:27.748Z,16.50
2018-09-21T12:10:56.787Z,16.30
2018-09-21T12:13:25.837Z,16.10
2018-09-21T12:15:54.673Z,16.00
2018-09-21T12:18:23.249Z,15.90
2018-09-21T12:20:51.847Z,15.60
2018-09-21T12:23:20.502Z,15.50
2018-09-21T12:25:49.075Z,15.40
2018-09-21T12:28:18.076Z,15.30
2018-09-21T12:30:46.829Z,15.20
2018-09-21T12:33:15.436Z,15.10
2018-09-21T12:35:44.746Z,15.20
2018-09-21T12:38:13.820Z,15.20
2018-09-21T12:40:43.553Z,15.30
2018-09-21T12:43:12.210Z,15.40
2018-09-21T12:45:41.161Z,15.50
2018-09-21T12:48:09.711Z,15.70
2018-09-21T12:50:38.317Z,15.70
2018-09-21T12:53:07.188Z,15.70
2018-09-21T12:55:36.842Z,15.70
2018-09-21T12:58:06.017Z,15.70
2018-09-21T13:00:39.982Z,15.80
2018-09-21T13:03:09.093Z,15.90
2018-09-21T13:05:37.873Z,15.90
2018-09-21T13:08:06.831Z,16.00
2018-09-21T13:10:35.778Z,16.00
2018-09-21T13:13:04.937Z,16.00
2018-09-21T13:15:34.085Z,16.10
2018-09-21T13:18:03.122Z,16.00
2018-09-21T13:20:31.687Z,15.90
2018-09-21T13:23:00.253Z,15.80
2018-09-21T13:25:30.690Z,15.70
2018-09-21T13:27:59.606Z,15.50
2018-09-21T13:30:28.358Z,15.20
2018-09-21T13:32:57.408Z,15.10
2018-09-21T13:35:28.385Z,15.00
2018-09-21T13:37:57.361Z,15.00
2018-09-21T13:40:27.731Z,15.00
2018-09-21T13:42:57.458Z,15.00
2018-09-21T13:45:27.577Z,15.10
2018-09-21T13:47:57.534Z,15.20
2018-09-21T13:50:26.133Z,15.30
2018-09-21T13:52:54.828Z,15.30
2018-09-21T13:55:23.621Z,15.30
2018-09-21T13:57:52.257Z,15.40
2018-09-21T14:00:21.387Z,15.30
2018-09-21T14:02:50.169Z,15.40
2018-09-21T14:05:18.973Z,15.30
2018-09-21T14:07:48.425Z,15.30
2018-09-21T14:10:18.818Z,15.30
2018-09-21T14:12:47.584Z,15.40
2018-09-21T14:15:16.894Z,15.40
2018-09-21T14:17:47.224Z,15.40
2018-09-21T14:20:16.030Z,15.40
2018-09-21T14:22:45.692Z,15.40
2018-09-21T14:25:21.745Z,15.40
2018-09-21T14:27:53.690Z,15.40
2018-09-21T14:30:22.884Z,15.40
2018-09-21T14:32:51.412Z,15.40
2018-09-21T14:35:20.604Z,15.40
2018-09-21T14:37:49.622Z,15.40
2018-09-21T14:40:18.300Z,15.30
2018-09-21T14:42:47.416Z,15.20
2018-09-21T14:45:16.480Z,15.20
2018-09-21T14:47:45.952Z,15.00
2018-09-21T14:50:16.118Z,15.00
2018-09-21T14:52:44.805Z,15.00
2018-09-21T14:55:14.034Z,15.00
2018-09-21T14:57:42.624Z,15.00
2018-09-21T15:00:11.992Z,15.00
2018-09-21T15:02:40.712Z,15.00
2018-09-21T15:05:09.266Z,14.90
2018-09-21T15:07:39.299Z,14.90
2018-09-21T15:10:08.036Z,14.90
2018-09-21T15:12:36.700Z,14.70
2018-09-21T15:15:05.503Z,14.80
2018-09-21T15:17:35.052Z,14.70
2018-09-21T15:20:03.885Z,14.70
2018-09-21T15:22:32.482Z,14.60
2018-09-21T15:25:01.323Z,14.70
2018-09-21T15:27:29.973Z,14.60
2018-09-21T15:29:58.723Z,14.60
2018-09-21T15:32:29.547Z,14.50
2018-09-21T15:34:58.512Z,14.50
2018-09-21T15:37:27.116Z,14.50
2018-09-21T15:39:56.332Z,14.50
2018-09-21T15:42:24.944Z,14.50
2018-09-21T15:44:55.377Z,14.50
2018-09-21T15:47:25.539Z,14.40
2018-09-21T15:49:54.194Z,14.40
2018-09-21T15:52:23.560Z,14.40
2018-09-21T15:54:52.141Z,14.40
2018-09-21T15:57:21.589Z,14.40
2018-09-21T15:59:50.680Z,14.40
2018-09-21T16:02:19.514Z,14.30
2018-09-21T16:04:49.637Z,14.30
2018-09-21T16:07:18.470Z,14.40
2018-09-21T16:09:47.051Z,14.40
2018-09-21T16:12:15.932Z,14.40
2018-09-21T16:14:44.685Z,14.30
2018-09-21T16:17:13.865Z,14.40
2018-09-21T16:19:43.085Z,14.60
2018-09-21T16:22:12.641Z,14.70
2018-09-21T16:24:41.378Z,14.80
2018-09-21T16:27:10.005Z,15.00
2018-09-21T16:29:39.308Z,15.00
2018-09-21T16:32:08.701Z,15.00
2018-09-21T16:34:37.818Z,14.90
2018-09-21T16:37:06.548Z,15.00
2018-09-21T16:39:35.580Z,15.10
2018-09-21T16:42:04.616Z,15.10
2018-09-21T16:44:34.030Z,14.90
2018-09-21T16:47:03.160Z,14.80
2018-09-21T16:49:31.904Z,14.80
2018-09-21T16:52:01.458Z,14.70
2018-09-21T16:54:30.632Z,14.70
2018-09-21T16:57:00.078Z,14.50
2018-09-21T16:59:29.260Z,14.40
2018-09-21T17:01:59.900Z,14.40
2018-09-21T17:04:29.794Z,14.20
2018-09-21T17:06:59.475Z,14.10
2018-09-21T17:09:28.741Z,14.10
2018-09-21T17:11:58.070Z,14.10
2018-09-21T17:14:26.788Z,14.10
2018-09-21T17:16:56.092Z,14.10
2018-09-21T17:19:24.651Z,14.00
2018-09-21T17:21:53.499Z,14.00
2018-09-21T17:24:22.228Z,13.90
2018-09-21T17:26:50.972Z,13.80
2018-09-21T17:29:19.630Z,13.80
2018-09-21T17:31:48.447Z,13.70
2018-09-21T17:34:17.239Z,13.70
2018-09-21T17:36:46.061Z,13.60
2018-09-21T17:39:14.869Z,13.60
2018-09-21T17:41:44.188Z,13.60
2018-09-21T17:44:13.557Z,13.50
2018-09-21T17:46:43.918Z,13.50
2018-09-21T17:49:12.611Z,13.50
2018-09-21T17:51:47.769Z,13.40
2018-09-21T17:54:17.881Z,13.40
2018-09-21T17:56:49.694Z,13.40
2018-09-21T17:59:19.156Z,13.30
2018-09-21T18:01:47.905Z,13.30
2018-09-21T18:04:17.253Z,13.30
2018-09-21T18:06:46.487Z,13.30
2018-09-21T18:09:15.134Z,13.30
2018-09-21T18:11:43.908Z,13.20
2018-09-21T18:14:12.544Z,13.20
2018-09-21T18:16:41.391Z,13.20
2018-09-21T18:19:12.512Z,13.20
2018-09-21T18:21:44.991Z,13.10
2018-09-21T18:24:17.525Z,13.10
2018-09-21T18:26:50.983Z,13.10
2018-09-21T18:29:22.251Z,13.00
2018-09-21T18:31:57.756Z,13.00
2018-09-21T18:34:28.020Z,13.00
2018-09-21T18:36:58.631Z,13.00
2018-09-21T18:39:27.882Z,12.90
2018-09-21T18:41:56.529Z,13.00
2018-09-21T18:44:25.224Z,12.90
2018-09-21T18:46:54.433Z,12.90
2018-09-21T18:49:22.986Z,12.90
2018-09-21T18:51:52.456Z,12.80
2018-09-21T18:54:21.223Z,12.90
2018-09-21T18:56:50.472Z,12.80
2018-09-21T18:59:19.017Z,12.80
2018-09-21T19:01:47.679Z,12.80
2018-09-21T19:04:16.927Z,12.70
2018-09-21T19:06:45.685Z,12.70
2018-09-21T19:09:14.428Z,12.70
2018-09-21T19:11:43.054Z,12.70
2018-09-21T19:14:14.613Z,12.70
2018-09-21T19:16:47.594Z,12.70
2018-09-21T19:19:19.178Z,12.60
2018-09-21T19:21:48.924Z,12.50
2018-09-21T19:24:17.948Z,12.50
2018-09-21T19:26:47.444Z,12.50
2018-09-21T19:29:16.617Z,12.50
2018-09-21T19:31:45.283Z,12.50
2018-09-21T19:34:13.989Z,12.50
2018-09-21T19:36:42.843Z,12.50
2018-09-21T19:39:12.788Z,12.40
2018-09-21T19:41:42.359Z,12.40
2018-09-21T19:44:12.234Z,12.40
2018-09-21T19:46:41.254Z,12.40
2018-09-21T19:49:09.946Z,12.30
2018-09-21T19:51:39.501Z,12.30
2018-09-21T19:54:08.184Z,12.30
2018-09-21T19:56:37.198Z,12.30
2018-09-21T19:59:06.057Z,12.30
2018-09-21T20:01:35.565Z,12.30
2018-09-21T20:04:04.218Z,12.20
2018-09-21T20:06:33.117Z,12.20
2018-09-21T20:09:01.707Z,12.20
2018-09-21T20:11:30.551Z,12.20
2018-09-21T20:13:59.190Z,12.20
2018-09-21T20:16:27.751Z,12.20
2018-09-21T20:18:56.600Z,12.20
2018-09-21T20:21:25.307Z,12.20
2018-09-21T20:23:53.842Z,12.10
2018-09-21T20:26:23.943Z,12.10
2018-09-21T20:28:53.070Z,12.10
2018-09-21T20:31:27.543Z,12.10
2018-09-21T20:33:56.507Z,12.10
2018-09-21T20:36:25.448Z,12.00
2018-09-21T20:38:54.019Z,12.00
2018-09-21T20:41:22.687Z,12.00
2018-09-21T20:43:51.428Z,12.00
2018-09-21T20:46:20.060Z,12.00
2018-09-21T20:48:48.596Z,11.90
2018-09-21T20:51:17.512Z,11.90
2018-09-21T20:53:46.192Z,11.90
2018-09-21T20:56:14.822Z,11.80
2018-09-21T20:58:46.245Z,11.80
2018-09-21T21:01:15.772Z,11.80
2018-09-21T21:03:45.693Z,11.70
2018-09-21T21:06:16.449Z,11.70
2018-09-21T21:08:45.343Z,11.70
2018-09-21T21:11:14.718Z,11.60
2018-09-21T21:13:43.458Z,11.60
2018-09-21T21:16:12.107Z,11.60
2018-09-21T21:18:42.044Z,11.60
2018-09-21T21:21:11.332Z,11.60
2018-09-21T21:23:40.692Z,11.60
2018-09-21T21:26:10.120Z,11.60
2018-09-21T21:28:39.088Z,11.60
2018-09-21T21:31:07.773Z,11.60
2018-09-21T21:33:36.618Z,11.60
2018-09-21T21:36:05.352Z,11.70
2018-09-21T21:38:34.103Z,11.70
2018-09-21T21:41:02.688Z,11.70
2018-09-21T21:43:31.837Z,11.70
2018-09-21T21:46:00.572Z,11.70
2018-09-21T21:48:30.390Z,11.70
2018-09-21T21:50:59.516Z,11.70
2018-09-21T21:53:28.819Z,11.60
2018-09-21T21:55:58.036Z,11.60
2018-09-21T21:58:27.192Z,11.60
2018-09-21T22:01:01.117Z,11.60
2018-09-21T22:03:29.671Z,11.60
2018-09-21T22:05:58.312Z,11.60
2018-09-21T22:08:27.392Z,11.60
2018-09-21T22:10:56.369Z,11.60
2018-09-21T22:13:30.591Z,11.60
2018-09-21T22:16:00.239Z,11.60
2018-09-21T22:18:28.847Z,11.60
2018-09-21T22:20:57.565Z,11.60
2018-09-21T22:23:26.382Z,11.60
2018-09-21T22:25:55.208Z,11.60
2018-09-21T22:28:23.756Z,11.60
2018-09-21T22:30:52.662Z,11.60
2018-09-21T22:33:21.374Z,11.60
2018-09-21T22:35:50.893Z,11.60
2018-09-21T22:38:20.072Z,11.60
2018-09-21T22:40:48.764Z,11.60
2018-09-21T22:43:18.789Z,11.60
2018-09-21T22:45:48.161Z,11.70
2018-09-21T22:48:16.860Z,11.70
2018-09-21T22:50:45.781Z,11.70
2018-09-21T22:53:15.055Z,11.70
2018-09-21T22:55:44.512Z,11.80
2018-09-21T22:58:13.565Z,11.80
2018-09-21T23:00:43.368Z,11.80
2018-09-21T23:03:12.948Z,11.80
2018-09-21T23:05:42.125Z,11.80
2018-09-21T23:08:11.606Z,11.80
2018-09-21T23:10:40.618Z,11.90
2018-09-21T23:13:10.103Z,11.90
2018-09-21T23:15:39.477Z,11.90
2018-09-21T23:18:09.291Z,11.90
2018-09-21T23:20:39.020Z,11.80
2018-09-21T23:23:07.831Z,11.90
2018-09-21T23:25:36.438Z,11.90
2018-09-21T23:28:05.737Z,11.90
2018-09-21T23:30:34.420Z,11.90
2018-09-21T23:33:03.071Z,11.90
2018-09-21T23:35:32.745Z,11.90
2018-09-21T23:38:01.565Z,11.80
2018-09-21T23:40:30.264Z,11.90
2018-09-21T23:42:59.144Z,11.90
2018-09-21T23:45:28.395Z,11.90
2018-09-21T23:47:56.967Z,11.90
2018-09-21T23:50:25.595Z,11.80
2018-09-21T23:52:54.237Z,11.90
2018-09-21T23:55:29.318Z,11.90
2018-09-21T23:57:58.120Z,11.90
